MET'MAP v2.0
soon released !

Expected late october,
this new version will be
more efficient, smarter,
and hosted on a brand new
server x3 powerfull...
...and still free !


Not compatible ?
Try the mobile version !

LOG IN : | Subscribe | Disclaimer | Who is Orbifly ? |
ICAO code :

TAF - EDLN Mönchengladbach Airport - 17 Nov 2019 16:29 UTC
Data Sources :     NOAA   


- Airport Elevation : 125 ft
- IATA code : MGL
- No reported NOTAMs.


EDLN - Mönchengladbach Airport

Latest METAR recorded : 2015/08/11 08:20 EDLN 110820Z VRB02KT 5000 BR NSC 20/18 Q1018 RMK ATIS F
TAF TAF EDLN
Valid from the 17 at 15:00 until the 18 at 00:00 UTC


171400Z 1715/1724 35008KT CAVOK
BECMG 1717/1719 4000 -RA BR
BECMG 1719/1722 BKN010
TEMPO 1719/1722 RA

Source NOAA


MET'MAP, your aeronautical weather chart ! - Copyright ORBIFLY December 2007

Programming & Development : Alexandra Zaïnal
Co-Developer : Marc-Olivier Méhu
Technical & hardware support : Manuel Goepfert
Concept & Financing : Baudouin d'Aumeries